Time;durP1;ratioP1;P1;durP2;ratioP2;P2;SDS_P1;SDS_P2;PMS_P1;PMS_P2;Temp;Humidity;BMP_temperature;BMP_pressure;BME280_temperature;BME280_humidity;BME280_pressure;Samples;Min_cycle;Max_cycle;Signal;HPM_P1;HPM_P2
2024/01/22 00:01:05;;;;;;;13.30;6.55;;;4.40;99.90;;;;;;5014271;28;20034;-46
2024/01/22 00:03:30;;;;;;;8.57;6.88;;;4.40;99.90;;;;;;5013703;28;20028;-48
2024/01/22 00:05:56;;;;;;;12.20;6.75;;;4.50;99.90;;;;;;5013721;28;20556;-53
2024/01/22 00:08:21;;;;;;;11.25;5.97;;;4.50;99.90;;;;;;5012056;28;20025;-49
2024/01/22 00:10:47;;;;;;;13.35;6.47;;;4.50;99.90;;;;;;5013666;28;20057;-52
2024/01/22 00:13:12;;;;;;;14.05;6.22;;;4.60;99.90;;;;;;5013581;28;20108;-49
2024/01/22 00:15:38;;;;;;;9.27;5.35;;;4.50;99.90;;;;;;5013587;28;20506;-50
2024/01/22 00:18:03;;;;;;;7.47;5.32;;;4.60;99.90;;;;;;5013494;28;20029;-47
2024/01/22 00:20:29;;;;;;;12.65;5.88;;;4.60;99.90;;;;;;5013430;28;20018;-45
2024/01/22 00:22:54;;;;;;;11.07;6.18;;;4.60;99.90;;;;;;5028609;28;20025;-46
2024/01/22 00:25:20;;;;;;;10.25;5.50;;;4.60;99.90;;;;;;5013411;28;20045;-46
2024/01/22 00:27:45;;;;;;;16.60;6.10;;;4.60;99.90;;;;;;5012984;28;20057;-47
2024/01/22 00:30:11;;;;;;;12.48;5.47;;;4.60;99.90;;;;;;5013279;28;20105;-47
2024/01/22 00:32:37;;;;;;;10.05;5.75;;;4.60;99.90;;;;;;5012720;28;20030;-48
2024/01/22 00:35:02;;;;;;;12.77;6.07;;;4.60;99.90;;;;;;5013054;28;20033;-45
2024/01/22 00:37:28;;;;;;;9.40;5.18;;;4.60;99.90;;;;;;5011529;28;20033;-46
2024/01/22 00:39:56;;;;;;;11.70;5.18;;;4.50;99.90;;;;;;5011728;28;20033;-45
2024/01/22 00:42:22;;;;;;;12.60;5.90;;;4.50;99.90;;;;;;5013104;28;20362;-47
2024/01/22 00:44:47;;;;;;;12.23;6.25;;;4.50;99.90;;;;;;5012989;28;20022;-47
2024/01/22 00:47:13;;;;;;;10.80;5.65;;;4.50;99.90;;;;;;5012484;28;20442;-48
2024/01/22 00:49:38;;;;;;;10.68;5.18;;;4.50;99.90;;;;;;5012886;28;20026;-48
2024/01/22 00:52:04;;;;;;;11.55;5.80;;;4.50;99.90;;;;;;5011394;28;20109;-46
2024/01/22 00:54:30;;;;;;;11.05;5.20;;;4.50;99.90;;;;;;5012805;28;20072;-48
2024/01/22 00:56:56;;;;;;;9.30;5.45;;;4.50;99.90;;;;;;5011392;28;20037;-49
2024/01/22 00:59:22;;;;;;;8.95;5.32;;;4.40;99.90;;;;;;5014004;28;20018;-49
2024/01/22 01:01:48;;;;;;;12.77;5.57;;;4.50;99.90;;;;;;5014210;28;20475;-51
2024/01/22 01:04:13;;;;;;;15.23;6.07;;;4.50;99.90;;;;;;5013581;28;20061;-51
2024/01/22 01:06:39;;;;;;;10.15;5.78;;;4.50;99.90;;;;;;5013482;28;20041;-47
2024/01/22 01:09:04;;;;;;;10.52;6.32;;;4.50;99.90;;;;;;5011072;28;20096;-48
2024/01/22 01:11:30;;;;;;;9.68;5.30;;;4.50;99.90;;;;;;5012457;28;20030;-52
2024/01/22 01:13:55;;;;;;;7.80;5.55;;;4.50;99.90;;;;;;5012556;28;20097;-51
2024/01/22 01:16:21;;;;;;;14.25;6.28;;;4.50;99.90;;;;;;5012159;28;20026;-49
2024/01/22 01:18:46;;;;;;;9.52;5.45;;;4.50;99.90;;;;;;5011069;28;20025;-54
2024/01/22 01:21:12;;;;;;;9.93;5.90;;;4.50;99.90;;;;;;5010998;28;20117;-50
2024/01/22 01:23:38;;;;;;;12.77;5.47;;;4.50;99.90;;;;;;5012473;28;20030;-49
2024/01/22 01:26:03;;;;;;;11.85;5.50;;;4.50;99.90;;;;;;5010709;28;20068;-52
2024/01/22 01:28:29;;;;;;;9.05;5.60;;;4.50;99.90;;;;;;5011980;28;20052;-52
2024/01/22 01:30:54;;;;;;;10.23;5.30;;;4.50;99.90;;;;;;5012124;28;20068;-48
2024/01/22 01:33:20;;;;;;;8.10;5.10;;;4.40;99.90;;;;;;5011753;28;20026;-47
2024/01/22 01:35:46;;;;;;;8.60;5.43;;;4.50;99.90;;;;;;5012201;28;20034;-47
2024/01/22 01:38:11;;;;;;;8.45;4.93;;;4.50;99.90;;;;;;5011882;28;20026;-48
2024/01/22 01:40:40;;;;;;;9.43;5.18;;;4.50;99.90;;;;;;5012294;28;20026;-47
2024/01/22 01:43:05;;;;;;;6.57;4.97;;;4.50;99.90;;;;;;5010727;28;20384;-49
2024/01/22 01:45:31;;;;;;;8.80;5.30;;;4.50;99.90;;;;;;5011949;28;20041;-47
2024/01/22 01:47:56;;;;;;;6.18;4.32;;;4.60;99.90;;;;;;5011304;28;20076;-50
2024/01/22 01:50:22;;;;;;;7.32;5.15;;;4.60;99.90;;;;;;5012060;28;20073;-49
2024/01/22 01:52:49;;;;;;;5.63;4.50;;;4.60;99.90;;;;;;5012082;28;20377;-52
2024/01/22 01:55:15;;;;;;;5.75;4.30;;;4.70;99.90;;;;;;5011732;28;20022;-51
2024/01/22 01:57:41;;;;;;;8.68;4.75;;;4.70;99.90;;;;;;5011594;28;20028;-50
2024/01/22 02:00:09;;;;;;;11.80;5.07;;;4.80;99.90;;;;;;5012050;28;20124;-47
2024/01/22 02:02:38;;;;;;;11.73;5.03;;;4.80;99.90;;;;;;5011784;28;20109;-47
2024/01/22 02:05:05;;;;;;;12.55;5.18;;;4.80;99.90;;;;;;5010619;28;20026;-54
2024/01/22 02:07:30;;;;;;;10.15;5.35;;;4.70;99.90;;;;;;5009894;28;20076;-49
2024/01/22 02:09:56;;;;;;;11.88;4.72;;;4.80;99.90;;;;;;5011632;28;20026;-49
2024/01/22 02:12:21;;;;;;;8.57;4.88;;;4.80;99.90;;;;;;5010234;28;20033;-49
2024/01/22 02:14:47;;;;;;;5.47;3.90;;;4.80;99.90;;;;;;5010223;28;20026;-49
2024/01/22 02:17:14;;;;;;;8.43;4.90;;;4.80;99.90;;;;;;5009824;28;20029;-52
2024/01/22 02:19:40;;;;;;;10.88;4.85;;;4.80;99.90;;;;;;5010285;28;20022;-50
2024/01/22 02:22:05;;;;;;;9.30;5.00;;;4.70;99.90;;;;;;5011638;28;20026;-47
2024/01/22 02:24:31;;;;;;;10.77;4.75;;;4.80;99.90;;;;;;5010150;28;20026;-51
2024/01/22 02:26:57;;;;;;;7.55;4.13;;;4.80;99.90;;;;;;5011096;28;20116;-53
2024/01/22 02:29:22;;;;;;;12.45;5.80;;;4.80;99.90;;;;;;5011411;28;20157;-47
2024/01/22 02:31:49;;;;;;;5.03;3.45;;;4.80;99.90;;;;;;5009782;28;20459;-49
2024/01/22 02:34:15;;;;;;;5.25;3.63;;;4.80;99.90;;;;;;5011465;28;20029;-47
2024/01/22 02:36:41;;;;;;;7.53;4.18;;;4.80;99.90;;;;;;5011148;28;20025;-46
2024/01/22 02:39:06;;;;;;;8.40;4.18;;;4.80;99.90;;;;;;5011352;28;20554;-50
2024/01/22 02:41:32;;;;;;;6.30;3.83;;;4.80;99.90;;;;;;5011312;28;20064;-47
2024/01/22 02:43:57;;;;;;;9.55;4.45;;;4.80;99.90;;;;;;5011292;28;20110;-51
2024/01/22 02:46:24;;;;;;;6.93;3.97;;;4.80;99.90;;;;;;5011082;28;20033;-48
2024/01/22 02:48:51;;;;;;;9.35;4.40;;;4.80;99.90;;;;;;5009763;28;20033;-49
2024/01/22 02:51:16;;;;;;;7.40;5.18;;;4.80;99.90;;;;;;5011195;28;20060;-47
2024/01/22 02:53:42;;;;;;;5.22;3.70;;;4.90;99.90;;;;;;5011213;28;20429;-49
2024/01/22 02:56:07;;;;;;;8.02;3.97;;;4.80;99.90;;;;;;5010868;28;20541;-47
2024/01/22 02:58:33;;;;;;;4.60;3.10;;;4.90;99.90;;;;;;5011011;28;20062;-47
2024/01/22 03:00:58;;;;;;;11.73;5.00;;;5.00;99.90;;;;;;5014103;28;20022;-49
2024/01/22 03:03:24;;;;;;;9.18;3.75;;;5.00;99.90;;;;;;5014765;28;20487;-46
2024/01/22 03:05:49;;;;;;;8.88;4.05;;;5.00;99.90;;;;;;5013474;28;20029;-47
2024/01/22 03:08:15;;;;;;;8.90;4.95;;;4.90;99.90;;;;;;5015000;28;20018;-47
2024/01/22 03:10:40;;;;;;;10.90;3.53;;;4.90;99.90;;;;;;5014640;28;20063;-52
2024/01/22 03:13:06;;;;;;;11.45;4.20;;;5.00;99.90;;;;;;5014552;28;20030;-47
2024/01/22 03:15:31;;;;;;;8.00;4.13;;;4.90;99.90;;;;;;5014483;28;20033;-46
2024/01/22 03:17:57;;;;;;;12.82;3.72;;;4.90;99.90;;;;;;5014220;28;20498;-51
2024/01/22 03:20:22;;;;;;;4.72;3.53;;;4.90;99.90;;;;;;5014458;28;20160;-47
2024/01/22 03:22:48;;;;;;;5.40;3.33;;;4.90;99.90;;;;;;5013010;28;20018;-47
2024/01/22 03:25:16;;;;;;;3.92;3.28;;;4.90;99.90;;;;;;5012937;28;20134;-48
2024/01/22 03:27:42;;;;;;;9.25;4.10;;;4.90;99.90;;;;;;5012686;28;20503;-47
2024/01/22 03:30:08;;;;;;;7.10;3.95;;;4.90;99.90;;;;;;5012994;28;20029;-47
2024/01/22 03:32:33;;;;;;;7.32;3.40;;;4.90;99.90;;;;;;5013863;28;20061;-51
2024/01/22 03:34:59;;;;;;;5.50;4.00;;;4.90;99.90;;;;;;5014129;28;20025;-46
2024/01/22 03:37:24;;;;;;;4.75;3.35;;;5.00;99.90;;;;;;5013723;28;20022;-47
2024/01/22 03:39:50;;;;;;;4.93;2.80;;;5.00;99.90;;;;;;5014171;28;20025;-47
2024/01/22 03:42:16;;;;;;;7.88;3.88;;;4.90;99.90;;;;;;5012795;28;20395;-51
2024/01/22 03:44:41;;;;;;;8.85;3.50;;;4.90;99.90;;;;;;5014443;28;20061;-47
2024/01/22 03:47:07;;;;;;;6.10;3.45;;;4.90;99.90;;;;;;5013647;28;20063;-47
2024/01/22 03:49:32;;;;;;;5.70;3.05;;;4.90;99.90;;;;;;5014021;28;20073;-47
2024/01/22 03:51:58;;;;;;;4.53;3.22;;;4.80;99.90;;;;;;5013683;28;20022;-50
2024/01/22 03:54:23;;;;;;;7.45;3.45;;;4.80;99.90;;;;;;5013239;28;20106;-46
2024/01/22 03:56:49;;;;;;;6.80;3.00;;;4.90;99.90;;;;;;5013426;28;20042;-47
2024/01/22 03:59:14;;;;;;;8.85;3.45;;;4.80;99.90;;;;;;5014273;28;20552;-52
2024/01/22 04:01:40;;;;;;;10.43;3.20;;;4.90;99.90;;;;;;5013764;28;20049;-49
2024/01/22 04:04:05;;;;;;;8.90;4.82;;;4.90;99.90;;;;;;5013719;28;20026;-47
2024/01/22 04:06:31;;;;;;;8.60;3.63;;;5.00;99.90;;;;;;5013391;28;20033;-48
2024/01/22 04:08:56;;;;;;;6.28;3.47;;;5.10;99.90;;;;;;5013456;28;20026;-47
2024/01/22 04:11:22;;;;;;;8.30;3.50;;;5.10;99.90;;;;;;5013412;28;20022;-49
2024/01/22 04:13:47;;;;;;;10.18;3.65;;;5.00;99.90;;;;;;5013681;28;20104;-47
2024/01/22 04:16:13;;;;;;;3.97;3.35;;;5.10;99.90;;;;;;5013292;28;20053;-52
2024/01/22 04:18:43;;;;;;;10.82;3.58;;;5.00;99.90;;;;;;5013252;28;20510;-51
2024/01/22 04:21:09;;;;;;;7.75;3.15;;;5.00;99.90;;;;;;5013237;28;20050;-47
2024/01/22 04:23:35;;;;;;;12.82;3.88;;;5.10;99.90;;;;;;5012078;28;20467;-47
2024/01/22 04:26:05;;;;;;;4.82;2.83;;;5.20;99.90;;;;;;5013214;28;20438;-48
2024/01/22 04:28:30;;;;;;;3.97;3.30;;;5.10;99.90;;;;;;5011708;28;20022;-48
2024/01/22 04:30:56;;;;;;;5.32;3.35;;;5.20;99.90;;;;;;5013158;28;20106;-49
2024/01/22 04:33:21;;;;;;;4.47;3.15;;;5.20;99.90;;;;;;5013413;28;20061;-53
2024/01/22 04:35:49;;;;;;;6.68;2.95;;;5.30;99.90;;;;;;5013000;28;20029;-49
2024/01/22 04:38:15;;;;;;;7.50;3.92;;;5.30;99.90;;;;;;5013080;28;20479;-47
2024/01/22 04:40:40;;;;;;;6.05;3.42;;;5.30;99.90;;;;;;5011777;28;20036;-51
2024/01/22 04:43:06;;;;;;;7.97;3.15;;;5.30;99.90;;;;;;5012921;28;20026;-48
2024/01/22 04:45:31;;;;;;;4.10;3.10;;;5.40;99.90;;;;;;5012845;28;20026;-49
2024/01/22 04:47:57;;;;;;;6.72;3.67;;;5.40;99.90;;;;;;5012632;28;20511;-49
2024/01/22 04:50:23;;;;;;;6.47;3.55;;;5.50;99.90;;;;;;5012763;28;20120;-50
2024/01/22 04:52:48;;;;;;;4.88;2.80;;;5.50;99.90;;;;;;5012879;28;20491;-48
2024/01/22 04:55:14;;;;;;;6.70;3.25;;;;;;;;;;5012762;28;20460;-47
2024/01/22 04:57:40;;;;;;;5.15;2.40;;;5.60;99.90;;;;;;5012691;28;20148;-47
2024/01/22 05:00:06;;;;;;;7.47;2.88;;;5.60;99.90;;;;;;5012783;28;20372;-47
2024/01/22 05:02:32;;;;;;;7.55;3.60;;;5.70;99.90;;;;;;5027931;28;20454;-47
2024/01/22 05:04:59;;;;;;;9.52;3.53;;;5.70;99.90;;;;;;5012945;28;20483;-47
2024/01/22 05:07:25;;;;;;;4.03;2.60;;;5.70;99.90;;;;;;5012574;28;20036;-49
2024/01/22 05:09:58;;;;;;;5.72;3.53;;;5.80;99.90;;;;;;5013000;28;20037;-46
2024/01/22 05:12:24;;;;;;;6.50;3.05;;;5.80;99.90;;;;;;5013012;28;20026;-48
2024/01/22 05:14:50;;;;;;;5.25;2.92;;;5.90;99.90;;;;;;5012644;28;20053;-49
2024/01/22 05:17:15;;;;;;;4.85;2.58;;;5.90;99.90;;;;;;5012625;28;20060;-48
2024/01/22 05:19:40;;;;;;;4.38;3.58;;;6.00;99.90;;;;;;5012648;28;20040;-47
2024/01/22 05:22:06;;;;;;;3.08;2.55;;;6.00;99.90;;;;;;5011818;28;20030;-47
2024/01/22 05:24:31;;;;;;;4.13;2.13;;;6.00;99.90;;;;;;5012632;28;20428;-53
2024/01/22 05:26:57;;;;;;;3.65;2.10;;;6.00;99.90;;;;;;5012346;28;20030;-47
2024/01/22 05:29:22;;;;;;;5.47;3.28;;;6.20;99.90;;;;;;5011390;28;20037;-47
2024/01/22 05:31:49;;;;;;;8.13;2.58;;;6.20;99.90;;;;;;5028034;28;20414;-47
2024/01/22 05:34:14;;;;;;;3.88;2.90;;;6.20;99.90;;;;;;5012682;28;20117;-47
2024/01/22 05:36:40;;;;;;;5.53;2.63;;;6.20;99.90;;;;;;5012441;28;20533;-48
2024/01/22 05:39:05;;;;;;;4.03;2.78;;;6.20;99.90;;;;;;5012822;28;20018;-46
2024/01/22 05:41:31;;;;;;;5.53;3.00;;;6.30;99.90;;;;;;5014574;28;20223;-53
2024/01/22 05:43:57;;;;;;;6.38;2.85;;;6.30;99.90;;;;;;5019280;28;20519;-54
2024/01/22 05:46:22;;;;;;;4.25;2.40;;;6.30;99.90;;;;;;5018681;28;20022;-51
2024/01/22 05:48:48;;;;;;;4.03;2.53;;;6.20;99.90;;;;;;5016839;28;20036;-51
2024/01/22 05:51:13;;;;;;;6.00;2.67;;;6.20;99.90;;;;;;5015906;28;20036;-48
2024/01/22 05:53:40;;;;;;;4.10;2.28;;;6.20;99.90;;;;;;5012197;28;20422;-48
2024/01/22 05:56:06;;;;;;;2.92;2.35;;;6.20;99.90;;;;;;5012505;28;20026;-49
2024/01/22 05:58:32;;;;;;;6.50;2.95;;;6.10;99.90;;;;;;5012528;28;20022;-47
2024/01/22 06:00:57;;;;;;;4.28;2.67;;;6.10;99.90;;;;;;5012387;28;20072;-50
2024/01/22 06:03:23;;;;;;;5.72;2.60;;;6.10;99.90;;;;;;5012342;28;20092;-50
2024/01/22 06:05:48;;;;;;;5.70;3.55;;;6.10;99.90;;;;;;5011939;28;20022;-52
2024/01/22 06:08:14;;;;;;;6.30;3.03;;;6.00;99.90;;;;;;5011596;28;20025;-46
2024/01/22 06:10:39;;;;;;;3.80;2.70;;;6.00;99.90;;;;;;5012083;28;20034;-47
2024/01/22 06:13:05;;;;;;;3.92;3.40;;;6.10;99.90;;;;;;5011998;28;20471;-50
2024/01/22 06:15:30;;;;;;;7.38;2.70;;;6.10;99.90;;;;;;4999846;28;20053;-46
2024/01/22 06:17:56;;;;;;;4.18;2.97;;;6.10;99.90;;;;;;5010803;28;20018;-52
2024/01/22 06:20:21;;;;;;;8.10;3.35;;;6.00;99.90;;;;;;5007081;28;20015;-51
2024/01/22 06:22:47;;;;;;;5.07;3.00;;;6.00;99.90;;;;;;5007721;28;20041;-48
2024/01/22 06:25:12;;;;;;;8.80;3.15;;;5.90;99.90;;;;;;5016488;28;20054;-51
2024/01/22 06:27:38;;;;;;;5.43;3.13;;;6.00;99.90;;;;;;5010312;28;20068;-47
2024/01/22 06:30:04;;;;;;;7.10;2.97;;;5.90;99.90;;;;;;5000387;28;20041;-51
2024/01/22 06:32:30;;;;;;;4.63;3.10;;;5.90;99.90;;;;;;5009383;28;20022;-50
2024/01/22 06:34:55;;;;;;;8.18;3.30;;;5.90;99.90;;;;;;5010012;28;20034;-48
2024/01/22 06:37:26;;;;;;;6.30;3.28;;;5.80;99.90;;;;;;4995621;28;20085;-47
2024/01/22 06:39:52;;;;;;;7.93;3.28;;;5.80;99.90;;;;;;4995962;28;20579;-47
2024/01/22 06:42:18;;;;;;;4.88;2.90;;;5.70;99.90;;;;;;4996119;28;20109;-46
2024/01/22 06:44:43;;;;;;;6.55;3.38;;;5.80;99.90;;;;;;4995879;28;20026;-48
2024/01/22 06:47:09;;;;;;;7.72;3.90;;;5.70;99.90;;;;;;4999954;28;20034;-47
2024/01/22 06:49:34;;;;;;;6.60;2.83;;;5.80;99.90;;;;;;5015420;28;20065;-52
2024/01/22 06:52:00;;;;;;;5.95;3.10;;;5.70;99.90;;;;;;5015167;28;20029;-47
2024/01/22 06:54:26;;;;;;;4.93;2.70;;;5.70;99.90;;;;;;5015159;28;20107;-44
2024/01/22 06:56:51;;;;;;;5.70;2.78;;;5.70;99.90;;;;;;5014522;28;20071;-59
2024/01/22 06:59:17;;;;;;;4.43;3.00;;;5.80;99.90;;;;;;5013797;28;20018;-50
2024/01/22 07:01:42;;;;;;;4.57;2.90;;;5.70;99.90;;;;;;5014930;28;20088;-50
2024/01/22 07:04:08;;;;;;;3.20;2.75;;;5.80;99.90;;;;;;5015128;28;20510;-59
2024/01/22 07:06:35;;;;;;;5.88;2.90;;;5.90;99.90;;;;;;5013502;28;20033;-47
2024/01/22 07:09:00;;;;;;;3.38;2.50;;;5.90;99.90;;;;;;5014662;28;20081;-46
2024/01/22 07:11:26;;;;;;;5.15;3.22;;;5.90;99.90;;;;;;5013445;28;20026;-50
2024/01/22 07:13:52;;;;;;;3.55;2.55;;;5.90;99.90;;;;;;5014655;28;20033;-48
2024/01/22 07:16:17;;;;;;;6.72;2.70;;;5.90;99.90;;;;;;5014603;28;20479;-45
2024/01/22 07:18:43;;;;;;;5.93;2.45;;;6.00;99.90;;;;;;5014602;28;20484;-48
2024/01/22 07:21:08;;;;;;;5.20;2.15;;;6.10;99.90;;;;;;5008234;28;20033;-46
2024/01/22 07:23:34;;;;;;;7.82;2.67;;;6.10;99.90;;;;;;5004001;28;20109;-47
2024/01/22 07:26:02;;;;;;;4.18;1.85;;;6.10;99.90;;;;;;5002800;28;20034;-49
2024/01/22 07:28:27;;;;;;;4.00;2.40;;;6.10;99.90;;;;;;4998588;28;20065;-50
2024/01/22 07:30:52;;;;;;;8.50;2.28;;;6.00;99.90;;;;;;5009817;28;20065;-49
2024/01/22 07:33:18;;;;;;;8.10;4.10;;;6.00;99.90;;;;;;4996707;28;20041;-50
2024/01/22 07:35:44;;;;;;;4.18;2.10;;;6.00;99.90;;;;;;5012786;28;20450;-47
2024/01/22 07:38:09;;;;;;;4.55;2.72;;;6.00;99.90;;;;;;4999492;28;20030;-45
2024/01/22 07:40:35;;;;;;;3.47;2.17;;;6.10;99.90;;;;;;4994876;28;20110;-46
2024/01/22 07:43:01;;;;;;;5.25;2.85;;;6.10;99.90;;;;;;4994716;28;20034;-50
2024/01/22 07:45:26;;;;;;;3.78;2.30;;;6.10;99.90;;;;;;4993985;28;20037;-49
2024/01/22 07:47:52;;;;;;;6.07;3.88;;;6.10;99.90;;;;;;4999169;28;20026;-49
2024/01/22 07:50:17;;;;;;;4.70;2.88;;;6.20;99.90;;;;;;5014645;28;20447;-45
2024/01/22 07:52:43;;;;;;;8.40;3.33;;;6.20;99.90;;;;;;5004073;28;20117;-46
2024/01/22 07:55:11;;;;;;;5.15;2.70;;;6.20;99.90;;;;;;4994759;28;20026;-46
2024/01/22 07:57:36;;;;;;;4.35;3.05;;;6.20;99.90;;;;;;4994466;28;20025;-44
2024/01/22 08:00:03;;;;;;;5.82;2.92;;;6.20;99.90;;;;;;4994613;28;20034;-49
2024/01/22 08:02:28;;;;;;;5.70;2.60;;;6.10;99.90;;;;;;4994598;28;20084;-49
2024/01/22 08:04:54;;;;;;;4.60;2.97;;;6.10;99.90;;;;;;5004788;28;20541;-56
2024/01/22 08:07:19;;;;;;;5.13;2.90;;;6.10;99.90;;;;;;4994950;28;20034;-54
2024/01/22 08:09:46;;;;;;;7.45;2.83;;;6.00;99.90;;;;;;5007406;28;20085;-50
2024/01/22 08:12:11;;;;;;;6.28;2.35;;;5.90;99.90;;;;;;5010265;28;20038;-56
2024/01/22 08:14:37;;;;;;;9.38;2.58;;;5.90;99.90;;;;;;5000857;28;20050;-48
2024/01/22 08:17:02;;;;;;;6.03;3.50;;;5.90;99.90;;;;;;5008273;28;20113;-52
2024/01/22 08:19:28;;;;;;;8.52;2.30;;;5.90;99.90;;;;;;5010121;28;20109;-48
2024/01/22 08:21:54;;;;;;;3.55;2.35;;;5.80;99.90;;;;;;5014041;28;20054;-50
2024/01/22 08:24:20;;;;;;;11.50;3.67;;;5.80;99.90;;;;;;5013656;28;20451;-52
2024/01/22 08:26:45;;;;;;;6.78;2.30;;;5.90;99.90;;;;;;5013490;28;20440;-47
2024/01/22 08:29:11;;;;;;;2.53;2.33;;;5.90;99.90;;;;;;5013530;28;20026;-50
2024/01/22 08:31:38;;;;;;;5.57;2.03;;;5.90;99.90;;;;;;5013908;28;20134;-51
2024/01/22 08:34:03;;;;;;;9.43;2.15;;;6.00;99.90;;;;;;5013598;28;20030;-50
2024/01/22 08:36:29;;;;;;;3.25;2.60;;;6.00;99.90;;;;;;5013646;28;20101;-47
2024/01/22 08:38:54;;;;;;;2.72;1.98;;;6.10;99.90;;;;;;5013269;28;20080;-48
2024/01/22 08:41:22;;;;;;;4.70;1.98;;;6.10;99.90;;;;;;5013454;28;20081;-49
2024/01/22 08:43:48;;;;;;;2.83;2.00;;;6.10;99.90;;;;;;5013145;28;20025;-48
2024/01/22 08:46:14;;;;;;;2.85;2.00;;;6.10;99.90;;;;;;5013302;28;20030;-47
2024/01/22 08:48:39;;;;;;;3.47;2.13;;;6.20;99.90;;;;;;5028535;28;20104;-50
2024/01/22 08:51:05;;;;;;;5.57;2.20;;;6.20;99.90;;;;;;5013287;28;20030;-50
2024/01/22 08:53:30;;;;;;;3.65;1.77;;;6.20;99.90;;;;;;5012007;28;20022;-47
2024/01/22 08:55:56;;;;;;;5.30;1.95;;;6.30;99.90;;;;;;5012864;28;20165;-49
2024/01/22 08:58:22;;;;;;;2.25;1.67;;;6.30;99.90;;;;;;5012534;28;20018;-47
2024/01/22 09:00:47;;;;;;;2.75;2.13;;;6.40;99.90;;;;;;5013150;28;20046;-48
2024/01/22 09:03:13;;;;;;;2.83;1.52;;;6.30;99.90;;;;;;5011915;28;20495;-55
2024/01/22 09:05:38;;;;;;;4.93;2.60;;;6.40;99.90;;;;;;5013493;28;20030;-50
2024/01/22 09:08:04;;;;;;;4.70;1.60;;;6.40;99.90;;;;;;5013286;28;20034;-51
2024/01/22 09:10:31;;;;;;;6.15;2.15;;;6.40;99.90;;;;;;5011880;28;20032;-48
2024/01/22 09:12:56;;;;;;;7.57;2.28;;;6.50;99.90;;;;;;5013076;28;20026;-49
2024/01/22 09:15:22;;;;;;;1.92;1.80;;;6.50;99.90;;;;;;5013478;28;20391;-48
2024/01/22 09:17:47;;;;;;;4.72;2.42;;;6.60;99.90;;;;;;5012388;28;20037;-50
2024/01/22 09:20:14;;;;;;;2.30;1.70;;;6.50;99.90;;;;;;5012993;28;20439;-49
2024/01/22 09:22:40;;;;;;;5.40;2.00;;;6.60;99.90;;;;;;5012710;28;20022;-50
2024/01/22 09:25:05;;;;;;;3.47;2.10;;;6.50;99.90;;;;;;5012739;28;20034;-48
2024/01/22 09:27:31;;;;;;;3.08;2.17;;;6.60;99.90;;;;;;5012509;28;20026;-50
2024/01/22 09:29:58;;;;;;;4.90;1.75;;;6.70;99.90;;;;;;5012710;28;20073;-48
2024/01/22 09:32:25;;;;;;;2.97;1.48;;;6.70;99.90;;;;;;5012419;28;20049;-49
2024/01/22 09:34:51;;;;;;;3.28;1.75;;;6.80;99.90;;;;;;5010367;28;20021;-47
2024/01/22 09:37:16;;;;;;;2.65;1.75;;;6.80;99.90;;;;;;5004106;28;20026;-54
2024/01/22 09:39:44;;;;;;;4.00;2.10;;;6.90;99.90;;;;;;5007592;28;20034;-55
2024/01/22 09:42:12;;;;;;;7.03;1.83;;;6.90;99.90;;;;;;4999581;28;20030;-64
2024/01/22 09:44:39;;;;;;;2.90;1.83;;;7.00;99.90;;;;;;4992523;28;20027;-60
2024/01/22 09:47:05;;;;;;;1.50;1.40;;;7.00;99.90;;;;;;4990891;28;20161;-50
2024/01/22 09:49:31;;;;;;;9.40;2.03;;;7.10;99.90;;;;;;4996403;28;20108;-51
2024/01/22 09:51:56;;;;;;;5.65;1.70;;;7.10;99.90;;;;;;4995606;28;20518;-49
2024/01/22 09:54:28;;;;;;;1.85;1.75;;;7.20;99.90;;;;;;4995649;28;20019;-48
2024/01/22 09:56:54;;;;;;;3.00;1.80;;;7.30;99.90;;;;;;4995218;28;20483;-53
2024/01/22 09:59:24;;;;;;;2.22;2.00;;;7.30;99.90;;;;;;5001282;28;20022;-50
2024/01/22 10:01:52;;;;;;;4.80;1.98;;;7.30;99.90;;;;;;4992449;28;20034;-53
2024/01/22 10:04:18;;;;;;;4.28;2.13;;;7.40;99.90;;;;;;5006460;28;20026;-51
2024/01/22 10:06:46;;;;;;;5.85;2.00;;;7.40;99.90;;;;;;5002497;28;20064;-52
2024/01/22 10:09:15;;;;;;;4.72;2.05;;;7.40;99.90;;;;;;5010430;28;20030;-56
2024/01/22 10:11:44;;;;;;;2.08;1.63;;;7.40;99.90;;;;;;5005494;28;20022;-50
2024/01/22 10:14:10;;;;;;;4.53;1.70;;;7.50;99.90;;;;;;5002150;28;20026;-54
2024/01/22 10:16:36;;;;;;;3.00;2.33;;;7.50;99.90;;;;;;4994047;28;20051;-52
2024/01/22 10:19:07;;;;;;;3.03;2.10;;;7.50;99.90;;;;;;4993764;28;20076;-54
2024/01/22 10:21:34;;;;;;;5.78;2.05;;;7.50;99.90;;;;;;5000707;28;20080;-51
2024/01/22 10:24:08;;;;;;;5.07;1.73;;;7.60;99.90;;;;;;5006860;28;20030;-54
2024/01/22 10:26:35;;;;;;;3.33;2.10;;;7.50;99.90;;;;;;5011223;28;20540;-51
2024/01/22 10:29:17;;;;;;;8.45;3.28;;;7.60;99.90;;;;;;4997475;28;20452;-50
2024/01/22 10:31:59;;;;;;;5.78;1.90;;;7.60;99.90;;;;;;4992208;28;20069;-51
2024/01/22 10:34:28;;;;;;;2.33;1.70;;;7.60;99.90;;;;;;4993081;28;20050;-56
2024/01/22 10:37:10;;;;;;;4.55;1.90;;;7.70;99.90;;;;;;4991838;28;20439;-51
2024/01/22 10:39:41;;;;;;;3.15;1.73;;;7.70;99.90;;;;;;4991881;28;20101;-50
2024/01/22 10:42:11;;;;;;;4.75;2.10;;;7.80;99.90;;;;;;5005009;28;20029;-53
2024/01/22 10:44:41;;;;;;;4.93;2.10;;;7.80;99.90;;;;;;5003499;28;20118;-54
2024/01/22 10:47:09;;;;;;;2.97;1.92;;;7.90;99.90;;;;;;4990513;28;20026;-53
2024/01/22 10:49:35;;;;;;;3.63;1.90;;;7.90;99.90;;;;;;4991711;28;20026;-55
2024/01/22 10:52:02;;;;;;;2.33;1.80;;;8.00;99.90;;;;;;4997702;28;20569;-52
2024/01/22 10:54:28;;;;;;;3.92;2.08;;;8.00;99.90;;;;;;5011429;28;20467;-52
2024/01/22 10:57:03;;;;;;;3.90;2.30;;;8.00;99.90;;;;;;5011152;28;20495;-49
2024/01/22 10:59:35;;;;;;;3.75;1.98;;;8.00;99.90;;;;;;5010135;28;20507;-55
2024/01/22 11:02:05;;;;;;;2.92;2.30;;;8.00;99.90;;;;;;5009852;28;20029;-52
2024/01/22 11:04:41;;;;;;;4.95;2.47;;;8.00;99.90;;;;;;5009137;28;20026;-51
2024/01/22 11:07:10;;;;;;;7.32;3.22;;;7.90;99.90;;;;;;5007204;28;20022;-53
2024/01/22 11:09:36;;;;;;;3.38;2.05;;;8.00;99.90;;;;;;5006361;28;20034;-50
2024/01/22 11:12:13;;;;;;;4.93;2.65;;;7.90;99.90;;;;;;5009253;28;20124;-54
2024/01/22 11:14:40;;;;;;;3.45;2.40;;;8.00;99.90;;;;;;5002077;28;20022;-51
2024/01/22 11:17:08;;;;;;;4.53;2.45;;;7.90;99.90;;;;;;5009150;28;20053;-49
2024/01/22 11:19:34;;;;;;;4.00;2.50;;;8.00;99.90;;;;;;5005413;28;20029;-52
2024/01/22 11:22:07;;;;;;;4.65;2.97;;;8.00;99.90;;;;;;5013638;28;20473;-56
2024/01/22 11:24:33;;;;;;;5.10;2.72;;;8.00;99.90;;;;;;5014915;28;20038;-49
2024/01/22 11:26:58;;;;;;;2.88;2.47;;;8.00;99.90;;;;;;5002234;28;20036;-52
2024/01/22 11:29:28;;;;;;;5.93;2.72;;;8.00;99.90;;;;;;5012731;28;20118;-50
2024/01/22 11:31:54;;;;;;;3.38;2.70;;;8.00;99.90;;;;;;5010158;28;20057;-63
2024/01/22 11:34:38;;;;;;;3.13;2.85;;;8.00;99.90;;;;;;5018348;28;20027;-51
2024/01/22 11:37:03;;;;;;;6.78;2.85;;;8.00;99.90;;;;;;5000520;28;20058;-51
2024/01/22 11:39:35;;;;;;;3.72;3.00;;;8.00;99.90;;;;;;5006786;28;20068;-47
2024/01/22 11:42:16;;;;;;;2.28;2.13;;;8.10;99.90;;;;;;4994051;28;20030;-55
2024/01/22 11:44:48;;;;;;;3.90;2.40;;;8.10;99.90;;;;;;4994840;28;20026;-53
2024/01/22 11:47:14;;;;;;;4.18;2.53;;;8.10;99.90;;;;;;5000886;28;20422;-55
2024/01/22 11:49:39;;;;;;;5.43;2.40;;;8.10;99.90;;;;;;5014296;28;20081;-53
2024/01/22 11:52:18;;;;;;;5.20;2.28;;;8.10;99.90;;;;;;5012097;28;20037;-55
2024/01/22 11:55:00;;;;;;;3.17;2.10;;;8.10;99.90;;;;;;5013167;28;20028;-56
2024/01/22 11:57:28;;;;;;;2.97;1.88;;;8.20;99.90;;;;;;5032421;23;20502;-41
2024/01/22 12:00:05;;;;;;;3.55;2.28;;;8.20;99.90;;;;;;5014132;28;20022;-42
2024/01/22 12:02:34;;;;;;;3.35;2.10;;;8.20;99.90;;;;;;5014230;28;20109;-43
2024/01/22 12:05:17;;;;;;;2.70;2.33;;;8.20;99.90;;;;;;5009433;28;20128;-43
2024/01/22 12:07:44;;;;;;;9.38;5.85;;;8.20;99.90;;;;;;4987767;28;20038;-45
2024/01/22 12:10:24;;;;;;;3.08;2.15;;;8.20;99.90;;;;;;4994728;28;20022;-46
2024/01/22 12:12:56;;;;;;;2.67;2.00;;;8.20;99.90;;;;;;4994038;28;20226;-47
2024/01/22 12:15:23;;;;;;;4.32;2.13;;;8.20;99.90;;;;;;4992823;28;20104;-42
2024/01/22 12:17:50;;;;;;;5.32;2.45;;;8.20;99.90;;;;;;4993934;28;20031;-42
2024/01/22 12:20:17;;;;;;;6.72;2.63;;;8.20;99.90;;;;;;4994256;28;20081;-43
2024/01/22 12:22:42;;;;;;;4.38;2.10;;;8.20;99.90;;;;;;4992913;28;20120;-44
2024/01/22 12:25:10;;;;;;;2.60;2.33;;;8.20;99.90;;;;;;4994148;28;20023;-44
2024/01/22 12:27:36;;;;;;;3.13;2.10;;;8.20;99.90;;;;;;4994041;28;20030;-42
2024/01/22 12:30:08;;;;;;;3.00;1.95;;;8.30;99.90;;;;;;4994207;28;20030;-46
2024/01/22 12:32:37;;;;;;;4.05;2.17;;;8.30;99.90;;;;;;4994031;28;20414;-44
2024/01/22 12:35:03;;;;;;;4.47;2.88;;;8.30;99.90;;;;;;4991981;28;20030;-47
2024/01/22 12:37:31;;;;;;;5.18;2.58;;;8.30;99.90;;;;;;4993282;28;20045;-47
2024/01/22 12:40:14;;;;;;;2.30;2.05;;;8.30;99.90;;;;;;4993967;28;20058;-46
2024/01/22 12:42:47;;;;;;;2.88;1.90;;;8.30;99.90;;;;;;4993732;28;20022;-45
2024/01/22 12:45:19;;;;;;;3.30;2.40;;;8.30;99.90;;;;;;4993353;28;20061;-42
2024/01/22 12:47:48;;;;;;;3.30;2.70;;;8.30;99.90;;;;;;4993065;28;20021;-43
2024/01/22 12:50:17;;;;;;;5.05;2.35;;;8.30;99.90;;;;;;4993444;28;20089;-41
2024/01/22 12:52:44;;;;;;;3.33;2.45;;;8.40;99.90;;;;;;4993000;28;20022;-44